Time;durP1;ratioP1;P1;durP2;ratioP2;P2;SDS_P1;SDS_P2;PMS_P1;PMS_P2;Temp;Humidity;BMP_temperature;BMP_pressure;BME280_temperature;BME280_humidity;BME280_pressure;Samples;Min_cycle;Max_cycle;Signal;HPM_P1;HPM_P2
2021/01/12 00:02:17;;;;;;;21.83;11.27;;;;;;;;;;5011866;28;20164;-63
2021/01/12 00:04:43;;;;;;;16.52;9.50;;;;;;;;;;5006582;28;20121;-62
2021/01/12 00:07:10;;;;;;;18.63;9.90;;;;;;;;;;4992452;28;20050;-63
2021/01/12 00:09:36;;;;;;;17.02;9.18;;;;;;;;;;4993565;28;20065;-62
2021/01/12 00:12:02;;;;;;;13.93;8.73;;;;;;;;;;5011725;28;20045;-63
2021/01/12 00:14:31;;;;;;;14.57;9.80;;;;;;;;;;5010400;28;20042;-62
2021/01/12 00:16:57;;;;;;;17.08;9.80;;;;;;;;;;4994517;28;20378;-63
2021/01/12 00:19:23;;;;;;;14.40;8.40;;;;;;;;;;4992596;28;20053;-62
2021/01/12 00:21:49;;;;;;;17.08;8.50;;;;;;;;;;4992392;28;20046;-62
2021/01/12 00:24:15;;;;;;;15.15;9.65;;;;;;;;;;5011903;28;20045;-63
2021/01/12 00:26:41;;;;;;;16.10;8.43;;;;;;;;;;5011792;28;20053;-63
2021/01/12 00:29:08;;;;;;;18.02;9.00;;;;;;;;;;5008224;28;20089;-63
2021/01/12 00:31:37;;;;;;;16.05;8.80;;;;;;;;;;4992054;28;20050;-63
2021/01/12 00:34:03;;;;;;;14.35;10.23;;;;;;;;;;4992337;28;20054;-63
2021/01/12 00:36:29;;;;;;;20.02;9.35;;;;;;;;;;5000083;28;20113;-63
2021/01/12 00:38:57;;;;;;;15.07;9.48;;;;;;;;;;5015520;28;20053;-63
2021/01/12 00:41:23;;;;;;;16.73;8.50;;;;;;;;;;5015296;28;20045;-62
2021/01/12 00:43:49;;;;;;;16.75;8.52;;;;;;;;;;5003993;28;20077;-62
2021/01/12 00:46:15;;;;;;;15.48;8.55;;;;;;;;;;4995475;28;20121;-62
2021/01/12 00:48:41;;;;;;;18.80;11.30;;;;;;;;;;4995855;28;20099;-62
2021/01/12 00:51:07;;;;;;;15.40;9.80;;;;;;;;;;5003219;28;20038;-63
2021/01/12 00:53:33;;;;;;;19.38;9.95;;;;;;;;;;4995578;28;20066;-62
2021/01/12 00:55:59;;;;;;;18.25;9.98;;;;;;;;;;4995557;28;20042;-62
2021/01/12 00:58:25;;;;;;;17.58;9.18;;;;;;;;;;5008547;28;20046;-63
2021/01/12 01:00:51;;;;;;;20.80;10.13;;;;;;;;;;5005716;28;20073;-62
2021/01/12 01:03:17;;;;;;;18.00;8.90;;;;;;;;;;5000015;28;20034;-62
2021/01/12 01:05:43;;;;;;;19.80;9.70;;;;;;;;;;4995472;28;20050;-63
2021/01/12 01:08:09;;;;;;;19.42;9.65;;;;;;;;;;5000369;28;20065;-62
2021/01/12 01:10:38;;;;;;;13.60;8.88;;;;;;;;;;5014871;28;20042;-62
2021/01/12 01:13:04;;;;;;;13.60;8.65;;;;;;;;;;5013238;28;20153;-63
2021/01/12 01:15:30;;;;;;;12.18;8.27;;;;;;;;;;5013324;28;20042;-63
2021/01/12 01:17:56;;;;;;;16.33;7.95;;;;;;;;;;5004657;28;20035;-63
2021/01/12 01:20:22;;;;;;;13.80;8.35;;;;;;;;;;5006720;28;20141;-63
2021/01/12 01:22:48;;;;;;;17.58;9.05;;;;;;;;;;5014472;28;20438;-63
2021/01/12 01:25:14;;;;;;;14.93;9.23;;;;;;;;;;5013122;28;20132;-63
2021/01/12 01:27:40;;;;;;;17.83;9.93;;;;;;;;;;5014304;28;20042;-63
2021/01/12 01:30:07;;;;;;;14.88;9.35;;;;;;;;;;5012783;28;20049;-63
2021/01/12 01:32:33;;;;;;;16.13;9.25;;;;;;;;;;5002913;28;20177;-63
2021/01/12 01:34:59;;;;;;;13.73;10.50;;;;;;;;;;4999948;28;20416;-63
2021/01/12 01:37:25;;;;;;;18.17;9.27;;;;;;;;;;5012679;28;20053;-63
2021/01/12 01:39:52;;;;;;;16.30;9.73;;;;;;;;;;5014346;28;20046;-63
2021/01/12 01:42:18;;;;;;;16.20;9.65;;;;;;;;;;5012440;28;20046;-63
2021/01/12 01:44:44;;;;;;;16.33;9.52;;;;;;;;;;5014354;28;20125;-63
2021/01/12 01:47:10;;;;;;;13.55;8.18;;;;;;;;;;5012570;28;20492;-63
2021/01/12 01:49:36;;;;;;;14.60;8.82;;;;;;;;;;4996159;28;20092;-63
2021/01/12 01:52:02;;;;;;;12.95;8.63;;;;;;;;;;5013886;28;20063;-63
2021/01/12 01:54:28;;;;;;;13.20;9.10;;;;;;;;;;4995196;28;20160;-63
2021/01/12 01:56:54;;;;;;;13.27;8.10;;;;;;;;;;5013782;28;20049;-63
2021/01/12 01:59:20;;;;;;;9.05;7.65;;;;;;;;;;5014125;28;20058;-63
2021/01/12 02:01:46;;;;;;;9.60;8.05;;;;;;;;;;4996902;28;20129;-63
2021/01/12 02:04:19;;;;;;;10.10;7.03;;;;;;;;;;4994237;28;20137;-63
2021/01/12 02:06:45;;;;;;;9.90;7.13;;;;;;;;;;4977886;28;20116;-62
2021/01/12 02:09:30;;;;;;;13.95;7.70;;;;;;;;;;4994188;28;20053;-63
2021/01/12 02:11:56;;;;;;;13.40;8.23;;;;;;;;;;4993830;28;20508;-63
2021/01/12 02:14:23;;;;;;;11.10;7.30;;;;;;;;;;5002471;28;20573;-63
2021/01/12 02:16:50;;;;;;;8.45;7.10;;;;;;;;;;5013542;28;20080;-62
2021/01/12 02:19:20;;;;;;;11.15;8.10;;;;;;;;;;5013551;28;20053;-63
2021/01/12 02:21:50;;;;;;;9.23;6.72;;;;;;;;;;5000622;28;20081;-63
2021/01/12 02:24:16;;;;;;;11.65;8.18;;;;;;;;;;4993975;28;20074;-62
2021/01/12 02:26:42;;;;;;;14.05;8.98;;;;;;;;;;4993867;28;20050;-62
2021/01/12 02:29:08;;;;;;;11.10;8.25;;;;;;;;;;4977715;28;20100;-62
2021/01/12 02:31:35;;;;;;;11.13;9.38;;;;;;;;;;4993728;28;20092;-63
2021/01/12 02:34:05;;;;;;;11.60;8.40;;;;;;;;;;4993608;28;20041;-63
2021/01/12 02:36:31;;;;;;;11.23;8.43;;;;;;;;;;5011169;28;20141;-63
2021/01/12 02:38:58;;;;;;;11.70;8.13;;;;;;;;;;5011542;28;20511;-63
2021/01/12 02:41:28;;;;;;;8.73;7.80;;;;;;;;;;4995292;28;20046;-63
2021/01/12 02:43:54;;;;;;;9.05;7.20;;;;;;;;;;4993540;28;20043;-63
2021/01/12 02:46:20;;;;;;;10.38;7.13;;;;;;;;;;5013023;28;20045;-63
2021/01/12 02:48:46;;;;;;;11.10;8.32;;;;;;;;;;5011378;28;20091;-63
2021/01/12 02:51:12;;;;;;;11.05;8.70;;;;;;;;;;4993704;28;20042;-63
2021/01/12 02:53:38;;;;;;;9.45;8.48;;;;;;;;;;4994414;28;20493;-63
2021/01/12 02:56:04;;;;;;;9.48;7.60;;;;;;;;;;4993325;28;20052;-63
2021/01/12 02:58:30;;;;;;;8.07;6.85;;;;;;;;;;4993370;28;20086;-63
2021/01/12 03:00:56;;;;;;;10.15;7.28;;;;;;;;;;4993423;28;20040;-62
2021/01/12 03:03:22;;;;;;;9.07;6.78;;;;;;;;;;4992985;28;20568;-64
2021/01/12 03:05:48;;;;;;;8.15;5.20;;;;;;;;;;4993108;28;20432;-63
2021/01/12 03:08:15;;;;;;;10.20;6.00;;;;;;;;;;5007680;28;20045;-62
2021/01/12 03:10:41;;;;;;;10.05;6.03;;;;;;;;;;5012772;28;20045;-63
2021/01/12 03:13:07;;;;;;;6.90;5.30;;;;;;;;;;5012464;28;20041;-63
2021/01/12 03:15:35;;;;;;;7.28;5.53;;;;;;;;;;4994501;28;20081;-63
2021/01/12 03:18:01;;;;;;;7.38;5.20;;;;;;;;;;4992780;28;20080;-63
2021/01/12 03:20:27;;;;;;;11.65;5.55;;;;;;;;;;4994551;28;20101;-63
2021/01/12 03:22:53;;;;;;;7.70;5.28;;;;;;;;;;5012438;28;20419;-63
2021/01/12 03:25:20;;;;;;;9.88;5.55;;;;;;;;;;4993989;28;20200;-63
2021/01/12 03:27:47;;;;;;;6.90;4.63;;;;;;;;;;5009973;28;20108;-64
2021/01/12 03:30:13;;;;;;;7.15;5.28;;;;;;;;;;5011772;28;20049;-63
2021/01/12 03:32:40;;;;;;;8.35;5.10;;;;;;;;;;4992516;28;20456;-63
2021/01/12 03:35:06;;;;;;;10.57;5.30;;;;;;;;;;5000847;28;20133;-63
2021/01/12 03:37:32;;;;;;;13.32;6.22;;;;;;;;;;5012127;28;20522;-63
2021/01/12 03:39:58;;;;;;;6.40;5.45;;;;;;;;;;5012446;28;20450;-66
2021/01/12 03:42:24;;;;;;;8.20;5.43;;;;;;;;;;5000557;28;20060;-63
2021/01/12 03:44:50;;;;;;;8.70;5.75;;;;;;;;;;5010191;28;20408;-63
2021/01/12 03:47:17;;;;;;;7.07;5.18;;;;;;;;;;4993719;28;20381;-63
2021/01/12 03:49:43;;;;;;;7.47;5.38;;;;;;;;;;4993917;28;20129;-63
2021/01/12 03:52:09;;;;;;;9.32;5.47;;;;;;;;;;4993456;28;20035;-62
2021/01/12 03:54:35;;;;;;;8.75;6.05;;;;;;;;;;4992633;28;20056;-62
2021/01/12 03:57:01;;;;;;;9.07;5.85;;;;;;;;;;4999865;28;20030;-63
2021/01/12 03:59:27;;;;;;;7.88;5.10;;;;;;;;;;5012121;28;20484;-62
2021/01/12 04:01:53;;;;;;;12.07;6.20;;;;;;;;;;5008232;28;20046;-63
2021/01/12 04:04:19;;;;;;;11.70;6.20;;;;;;;;;;4992593;28;20042;-63
2021/01/12 04:06:46;;;;;;;8.93;5.35;;;;;;;;;;5006942;28;20038;-63
2021/01/12 04:09:12;;;;;;;12.68;5.85;;;;;;;;;;5010522;28;20044;-63
2021/01/12 04:11:38;;;;;;;9.07;4.63;;;;;;;;;;5012769;28;20117;-63
2021/01/12 04:14:05;;;;;;;9.15;5.13;;;;;;;;;;5014904;28;20045;-63
2021/01/12 04:16:31;;;;;;;13.02;5.35;;;;;;;;;;4994818;28;20054;-63
2021/01/12 04:18:57;;;;;;;13.02;5.95;;;;;;;;;;4996439;28;20046;-63
2021/01/12 04:21:23;;;;;;;7.60;4.95;;;;;;;;;;4996072;28;20060;-63
2021/01/12 04:23:49;;;;;;;18.55;5.78;;;;;;;;;;4997193;28;20049;-63
2021/01/12 04:26:15;;;;;;;9.95;5.18;;;;;;;;;;4995908;28;20456;-63
2021/01/12 04:28:41;;;;;;;9.63;4.53;;;;;;;;;;4996834;28;20404;-63
2021/01/12 04:31:07;;;;;;;10.95;4.78;;;;;;;;;;5015364;28;20042;-63
2021/01/12 04:33:34;;;;;;;12.57;5.97;;;;;;;;;;5015691;28;20100;-63
2021/01/12 04:36:00;;;;;;;17.15;5.38;;;;;;;;;;5015406;28;20049;-63
2021/01/12 04:38:26;;;;;;;8.70;4.90;;;;;;;;;;5003433;28;20042;-63
2021/01/12 04:40:52;;;;;;;10.15;5.32;;;;;;;;;;4995753;28;20048;-62
2021/01/12 04:43:18;;;;;;;10.35;4.38;;;;;;;;;;4995701;28;20088;-63
2021/01/12 04:45:44;;;;;;;10.80;4.97;;;;;;;;;;5008656;28;20045;-63
2021/01/12 04:48:10;;;;;;;13.20;5.13;;;;;;;;;;5003585;28;20034;-63
2021/01/12 04:50:36;;;;;;;13.32;5.07;;;;;;;;;;5001757;28;20125;-63
2021/01/12 04:53:02;;;;;;;20.17;6.07;;;;;;;;;;5015143;28;20057;-63
2021/01/12 04:55:28;;;;;;;13.25;6.22;;;;;;;;;;5012100;28;20056;-63
2021/01/12 04:57:54;;;;;;;14.88;6.10;;;;;;;;;;4995474;28;20041;-64
2021/01/12 05:00:25;;;;;;;11.38;5.60;;;;;;;;;;4995436;28;20054;-63
2021/01/12 05:03:01;;;;;;;11.88;5.50;;;;;;;;;;5012570;28;20054;-63
2021/01/12 05:05:28;;;;;;;11.20;5.75;;;;;;;;;;5015011;28;20061;-63
2021/01/12 05:07:54;;;;;;;15.82;6.30;;;;;;;;;;5014774;28;20044;-63
2021/01/12 05:10:20;;;;;;;15.05;6.40;;;;;;;;;;4997077;28;20042;-63
2021/01/12 05:12:46;;;;;;;10.82;6.00;;;;;;;;;;4994961;28;20121;-63
2021/01/12 05:15:12;;;;;;;14.18;6.53;;;;;;;;;;4996306;28;20042;-63
2021/01/12 05:17:38;;;;;;;14.70;6.47;;;;;;;;;;4977771;28;20084;-63
2021/01/12 05:20:05;;;;;;;14.15;7.40;;;;;;;;;;4995184;28;20124;-63
2021/01/12 05:22:31;;;;;;;15.00;5.95;;;;;;;;;;4998273;28;20152;-64
2021/01/12 05:25:19;;;;;;;17.02;6.25;;;;;;;;;;5013896;28;20046;-63
2021/01/12 05:27:43;;;;;;;13.73;6.28;;;;;;;;;;4999964;28;20556;-63
2021/01/12 05:30:09;;;;;;;11.88;6.47;;;;;;;;;;5004564;28;20100;-64
2021/01/12 05:32:37;;;;;;;16.20;5.82;;;;;;;;;;4994842;28;20115;-64
2021/01/12 05:35:04;;;;;;;14.57;6.78;;;;;;;;;;4994895;28;20046;-63
2021/01/12 05:37:31;;;;;;;14.23;6.05;;;;;;;;;;5008074;28;20419;-63
2021/01/12 05:39:57;;;;;;;18.80;6.85;;;;;;;;;;4996950;28;20038;-63
2021/01/12 05:42:23;;;;;;;13.65;6.63;;;;;;;;;;5014087;28;20044;-63
2021/01/12 05:44:49;;;;;;;10.13;3.72;;;;;;;;;;5003043;28;20489;-63
2021/01/12 05:47:15;;;;;;;4.90;1.85;;;;;;;;;;4978452;28;20050;-63
2021/01/12 05:49:43;;;;;;;3.88;1.30;;;;;;;;;;4994904;28;20039;-63
2021/01/12 05:52:10;;;;;;;3.42;1.15;;;;;;;;;;5001749;28;20045;-62
2021/01/12 05:54:36;;;;;;;4.55;1.15;;;;;;;;;;4982962;28;20049;-63
2021/01/12 05:57:05;;;;;;;5.30;1.50;;;;;;;;;;5013279;28;20069;-62
2021/01/12 05:59:32;;;;;;;3.53;1.23;;;;;;;;;;4994497;28;20042;-63
2021/01/12 06:02:03;;;;;;;2.38;0.73;;;;;;;;;;5009366;28;20038;-63
2021/01/12 06:04:29;;;;;;;9.13;1.50;;;;;;;;;;4996651;28;20056;-63
2021/01/12 06:06:56;;;;;;;7.70;1.23;;;;;;;;;;4994070;28;20046;-63
2021/01/12 06:09:22;;;;;;;3.53;1.02;;;;;;;;;;5009870;28;20431;-63
2021/01/12 06:11:50;;;;;;;5.72;0.95;;;;;;;;;;5013038;28;20042;-63
2021/01/12 06:14:17;;;;;;;6.43;0.77;;;;;;;;;;5013653;28;20457;-63
2021/01/12 06:16:44;;;;;;;5.22;0.75;;;;;;;;;;5003501;28;20057;-63
2021/01/12 06:19:11;;;;;;;4.95;0.85;;;;;;;;;;4994008;28;20053;-63
2021/01/12 06:21:57;;;;;;;5.10;0.85;;;;;;;;;;4993809;28;20053;-63
2021/01/12 06:24:40;;;;;;;7.93;1.00;;;;;;;;;;5009664;28;20038;-63
2021/01/12 06:27:16;;;;;;;3.38;0.88;;;;;;;;;;5013293;28;20444;-63
2021/01/12 06:29:43;;;;;;;9.18;1.35;;;;;;;;;;5013355;28;20038;-63
2021/01/12 06:32:09;;;;;;;5.93;1.33;;;;;;;;;;4996208;28;20065;-63
2021/01/12 06:34:35;;;;;;;6.43;2.10;;;;;;;;;;4993837;28;20042;-63
2021/01/12 06:37:04;;;;;;;11.85;2.22;;;;;;;;;;4993609;28;20058;-63
2021/01/12 06:39:39;;;;;;;3.60;1.70;;;;;;;;;;4990688;28;20052;-63
2021/01/12 06:42:06;;;;;;;4.85;1.65;;;;;;;;;;5013001;28;20042;-63
2021/01/12 06:44:33;;;;;;;7.03;1.25;;;;;;;;;;5013033;28;20046;-63
2021/01/12 06:46:59;;;;;;;5.93;1.20;;;;;;;;;;4999555;28;20413;-63
2021/01/12 06:49:25;;;;;;;6.18;1.65;;;;;;;;;;4993473;28;20419;-62
2021/01/12 06:52:01;;;;;;;6.63;1.73;;;;;;;;;;4976049;28;20038;-63
2021/01/12 06:54:34;;;;;;;6.95;1.02;;;;;;;;;;4998503;28;20046;-63
2021/01/12 06:57:01;;;;;;;9.30;1.60;;;;;;;;;;5001149;28;20046;-63
2021/01/12 06:59:40;;;;;;;9.43;1.60;;;;;;;;;;5006408;28;20042;-63
2021/01/12 07:02:07;;;;;;;10.73;2.90;;;;;;;;;;4998247;28;20038;-63
2021/01/12 07:04:33;;;;;;;8.98;1.35;;;;;;;;;;5000866;28;20050;-63
2021/01/12 07:07:00;;;;;;;11.02;1.35;;;;;;;;;;4994083;28;20083;-63
2021/01/12 07:09:26;;;;;;;8.25;0.90;;;;;;;;;;4993016;28;20113;-63
2021/01/12 07:12:05;;;;;;;7.00;1.50;;;;;;;;;;5002659;28;20073;-63
2021/01/12 07:14:31;;;;;;;11.05;1.80;;;;;;;;;;5012676;28;20049;-63
2021/01/12 07:17:07;;;;;;;7.85;1.00;;;;;;;;;;5082494;22;20045;-62
2021/01/12 07:19:36;;;;;;;20.45;1.58;;;;;;;;;;5052462;28;20037;-62
2021/01/12 07:22:06;;;;;;;6.03;1.13;;;;;;;;;;5052147;28;20106;-62
2021/01/12 07:24:36;;;;;;;5.60;0.90;;;;;;;;;;5052197;28;20052;-62
2021/01/12 07:27:02;;;;;;;11.60;1.52;;;;;;;;;;5036954;28;20029;-62
2021/01/12 07:29:29;;;;;;;9.02;1.95;;;;;;;;;;5046728;28;20053;-62
2021/01/12 07:32:04;;;;;;;9.70;3.00;;;;;;;;;;5050362;28;20037;-62
2021/01/12 07:34:36;;;;;;;13.75;1.67;;;;;;;;;;5051962;28;20114;-62
2021/01/12 07:37:06;;;;;;;20.67;2.30;;;;;;;;;;5051788;28;20049;-62
2021/01/12 07:39:34;;;;;;;11.27;1.65;;;;;;;;;;5037522;28;20442;-62
2021/01/12 07:42:00;;;;;;;13.55;2.38;;;;;;;;;;5031980;28;20037;-62
2021/01/12 07:44:26;;;;;;;10.05;1.63;;;;;;;;;;5031933;28;20052;-62
2021/01/12 07:46:57;;;;;;;10.43;2.50;;;;;;;;;;5031267;28;20041;-62
2021/01/12 07:49:24;;;;;;;13.38;3.85;;;;;;;;;;5042350;28;20041;-62
2021/01/12 07:51:50;;;;;;;8.15;2.50;;;;;;;;;;5051830;28;20090;-62
2021/01/12 07:54:25;;;;;;;12.15;2.40;;;;;;;;;;5051855;28;20048;-62
2021/01/12 07:56:54;;;;;;;8.02;1.55;;;;;;;;;;5051662;28;20123;-62
2021/01/12 07:59:23;;;;;;;8.82;1.65;;;;;;;;;;5039230;28;20049;-62
2021/01/12 08:01:49;;;;;;;12.88;2.72;;;;;;;;;;5028912;28;20052;-62
2021/01/12 08:04:15;;;;;;;6.85;1.40;;;;;;;;;;5031706;28;20042;-62
2021/01/12 08:06:42;;;;;;;16.67;1.88;;;;;;;;;;5030605;28;20045;-62
2021/01/12 08:09:08;;;;;;;9.80;1.75;;;;;;;;;;5033945;28;20427;-62
2021/01/12 08:11:35;;;;;;;9.60;2.35;;;;;;;;;;5012000;28;20046;-62
2021/01/12 08:14:05;;;;;;;6.78;2.00;;;;;;;;;;5010857;28;20038;-62
2021/01/12 08:16:31;;;;;;;14.20;2.35;;;;;;;;;;5032891;28;20041;-62
2021/01/12 08:18:57;;;;;;;12.48;1.90;;;;;;;;;;5051547;28;20033;-62
2021/01/12 08:21:24;;;;;;;8.95;1.92;;;;;;;;;;5051603;28;20069;-62
2021/01/12 08:23:59;;;;;;;8.10;1.92;;;;;;;;;;5050364;28;20045;-62
2021/01/12 08:26:25;;;;;;;10.32;2.63;;;;;;;;;;5051453;28;20049;-62
2021/01/12 08:28:51;;;;;;;11.88;2.95;;;;;;;;;;5051697;28;20072;-62
2021/01/12 08:31:18;;;;;;;9.32;1.88;;;;;;;;;;5051337;28;20055;-62
2021/01/12 08:33:44;;;;;;;10.10;1.77;;;;;;;;;;5051556;28;20041;-62
2021/01/12 08:36:14;;;;;;;15.95;3.25;;;;;;;;;;5051153;28;20041;-62
2021/01/12 08:38:41;;;;;;;14.27;2.28;;;;;;;;;;5031845;28;20118;-62
2021/01/12 08:41:07;;;;;;;9.77;2.00;;;;;;;;;;5031206;28;20132;-62
2021/01/12 08:43:33;;;;;;;11.60;1.85;;;;;;;;;;5030332;28;20037;-62
2021/01/12 08:46:00;;;;;;;14.98;2.55;;;;;;;;;;5031144;28;20042;-62
2021/01/12 08:48:26;;;;;;;11.07;2.90;;;;;;;;;;5044245;28;20041;-62
2021/01/12 08:50:52;;;;;;;15.48;3.10;;;;;;;;;;5051027;28;20051;-62
2021/01/12 08:53:18;;;;;;;8.25;2.70;;;;;;;;;;5051199;28;20040;-62
2021/01/12 08:55:44;;;;;;;16.90;3.53;;;;;;;;;;5048839;28;20614;-62
2021/01/12 08:58:10;;;;;;;13.57;3.75;;;;;;;;;;5022641;28;20132;-62
2021/01/12 09:00:42;;;;;;;14.23;3.53;;;;;;;;;;5023627;28;20104;-62
2021/01/12 09:03:09;;;;;;;16.75;3.67;;;;;;;;;;5023852;28;20049;-62
2021/01/12 09:05:38;;;;;;;13.10;2.97;;;;;;;;;;5024042;28;20112;-63
2021/01/12 09:08:05;;;;;;;11.57;2.75;;;;;;;;;;5025076;28;20033;-62
2021/01/12 09:10:31;;;;;;;9.32;2.10;;;;;;;;;;5025360;28;20069;-62
2021/01/12 09:12:57;;;;;;;3.97;1.00;;;;;;;;;;5031799;28;20120;-62
2021/01/12 09:15:33;;;;;;;5.10;0.70;;;;;;;;;;5034508;28;20477;-62
2021/01/12 09:18:06;;;;;;;3.92;0.50;;;;;;;;;;5035263;28;20067;-62
2021/01/12 09:20:32;;;;;;;;;;;;;;;;;;5054951;28;20043;-62
2021/01/12 09:23:05;;;;;;;1.17;0.38;;;;;;;;;;5054155;28;19924;-62
2021/01/12 09:25:32;;;;;;;2.58;0.43;;;;;;;;;;5054104;28;20037;-63
2021/01/12 09:28:10;;;;;;;6.35;0.60;;;;;;;;;;5054375;28;20127;-62
2021/01/12 09:30:37;;;;;;;5.30;0.80;;;;;;;;;;5034614;28;20037;-62
2021/01/12 09:33:03;;;;;;;6.78;0.70;;;;;;;;;;5034062;28;20041;-62
2021/01/12 09:35:29;;;;;;;5.10;0.93;;;;;;;;;;5034364;28;20052;-62
2021/01/12 09:37:58;;;;;;;6.55;1.23;;;;;;;;;;5034130;28;20610;-62
2021/01/12 09:40:25;;;;;;;5.25;0.50;;;;;;;;;;5034134;28;20092;-62
2021/01/12 09:42:51;;;;;;;4.88;0.70;;;;;;;;;;5034154;28;20037;-62
2021/01/12 09:45:17;;;;;;;8.18;0.75;;;;;;;;;;5043135;28;20050;-62
2021/01/12 09:47:44;;;;;;;8.68;2.47;;;;;;;;;;5053605;28;20049;-62
2021/01/12 09:50:11;;;;;;;7.18;0.60;;;;;;;;;;5034531;28;20041;-62
2021/01/12 09:52:37;;;;;;;8.05;1.10;;;;;;;;;;5022615;28;20041;-62
2021/01/12 09:55:03;;;;;;;5.65;0.80;;;;;;;;;;5022557;28;20408;-62
2021/01/12 09:57:29;;;;;;;5.57;0.90;;;;;;;;;;5023701;28;20037;-63
2021/01/12 09:59:55;;;;;;;2.95;0.73;;;;;;;;;;5024954;28;20109;-62
2021/01/12 10:02:21;;;;;;;10.85;0.95;;;;;;;;;;5033765;28;20044;-62
2021/01/12 10:04:47;;;;;;;12.25;2.10;;;;;;;;;;5053726;28;20045;-62
2021/01/12 10:07:13;;;;;;;4.93;0.93;;;;;;;;;;5053582;28;20127;-63
2021/01/12 10:09:39;;;;;;;6.03;1.00;;;;;;;;;;5053072;28;20045;-63
2021/01/12 10:12:06;;;;;;;10.02;2.10;;;;;;;;;;5052463;28;20045;-62
2021/01/12 10:14:32;;;;;;;4.40;0.70;;;;;;;;;;5033518;28;20495;-62
2021/01/12 10:16:58;;;;;;;7.75;0.98;;;;;;;;;;5033043;28;20519;-63
2021/01/12 10:19:24;;;;;;;7.95;0.95;;;;;;;;;;5033568;28;20373;-62
2021/01/12 10:21:50;;;;;;;8.77;1.10;;;;;;;;;;5033391;28;20158;-62
2021/01/12 10:24:16;;;;;;;5.80;1.23;;;;;;;;;;5033689;28;20072;-62
2021/01/12 10:26:43;;;;;;;6.07;0.50;;;;;;;;;;5033079;28;20037;-62
2021/01/12 10:29:10;;;;;;;4.45;1.08;;;;;;;;;;5033277;28;20120;-62
2021/01/12 10:31:37;;;;;;;4.88;1.08;;;;;;;;;;5033299;28;20065;-62
2021/01/12 10:34:03;;;;;;;4.63;1.10;;;;;;;;;;5044107;28;20107;-62
2021/01/12 10:36:30;;;;;;;8.10;0.95;;;;;;;;;;5052793;28;20116;-62
2021/01/12 10:38:56;;;;;;;6.10;1.38;;;;;;;;;;5052948;28;20124;-62
2021/01/12 10:41:22;;;;;;;5.95;0.50;;;;;;;;;;5045182;28;20042;-62
2021/01/12 10:43:50;;;;;;;2.58;0.63;;;;;;;;;;5021966;28;20049;-63
2021/01/12 10:46:17;;;;;;;6.82;1.48;;;;;;;;;;5022177;28;20041;-63
2021/01/12 10:48:43;;;;;;;5.63;0.95;;;;;;;;;;5025360;28;20037;-62
2021/01/12 10:51:09;;;;;;;10.80;1.83;;;;;;;;;;5030905;28;20488;-62
2021/01/12 10:53:35;;;;;;;2.13;0.70;;;;;;;;;;5033170;28;20052;-62
2021/01/12 10:56:01;;;;;;;5.95;1.35;;;;;;;;;;5047436;28;20470;-62
2021/01/12 10:58:28;;;;;;;4.63;1.05;;;;;;;;;;5032694;28;20049;-62
2021/01/12 11:00:54;;;;;;;4.50;0.75;;;;;;;;;;5032539;28;20514;-62
2021/01/12 11:03:20;;;;;;;4.30;0.93;;;;;;;;;;5032786;28;20045;-63
2021/01/12 11:05:48;;;;;;;9.15;1.05;;;;;;;;;;5048348;28;20474;-62
2021/01/12 11:08:15;;;;;;;9.25;1.55;;;;;;;;;;5052446;28;20123;-62
2021/01/12 11:10:41;;;;;;;7.18;1.95;;;;;;;;;;5052452;28;20033;-62
2021/01/12 11:13:08;;;;;;;6.32;0.73;;;;;;;;;;5052296;28;20071;-62
2021/01/12 11:15:38;;;;;;;8.85;1.17;;;;;;;;;;5040899;28;20155;-63
2021/01/12 11:18:05;;;;;;;4.60;0.68;;;;;;;;;;5032580;28;20052;-62
2021/01/12 11:20:32;;;;;;;3.33;0.70;;;;;;;;;;5032002;28;20499;-63
2021/01/12 11:22:58;;;;;;;7.63;0.65;;;;;;;;;;5031730;28;20457;-63
2021/01/12 11:25:24;;;;;;;12.60;1.40;;;;;;;;;;5038523;28;20049;-62
2021/01/12 11:27:50;;;;;;;7.75;1.05;;;;;;;;;;5052005;28;20582;-62
2021/01/12 11:30:17;;;;;;;10.60;1.75;;;;;;;;;;5051144;28;20427;-62
2021/01/12 11:32:44;;;;;;;8.23;1.48;;;;;;;;;;5051856;28;20040;-62
2021/01/12 11:35:11;;;;;;;11.52;1.60;;;;;;;;;;5050846;28;20048;-62
2021/01/12 11:37:37;;;;;;;8.57;1.00;;;;;;;;;;5031848;28;20492;-62
2021/01/12 11:40:04;;;;;;;7.50;1.10;;;;;;;;;;5032045;28;20069;-62
2021/01/12 11:42:30;;;;;;;8.38;0.90;;;;;;;;;;5031845;28;20471;-62
2021/01/12 11:44:56;;;;;;;5.78;0.70;;;;;;;;;;5031949;28;20080;-62
2021/01/12 11:47:22;;;;;;;7.18;1.95;;;;;;;;;;5047254;28;20132;-62
2021/01/12 11:49:48;;;;;;;10.07;1.35;;;;;;;;;;5049514;28;20124;-62
2021/01/12 11:52:15;;;;;;;3.58;0.65;;;;;;;;;;5051147;28;20095;-63
2021/01/12 11:54:41;;;;;;;4.38;0.70;;;;;;;;;;5035300;28;20402;-62
2021/01/12 11:57:09;;;;;;;6.07;1.13;;;;;;;;;;5024797;28;20128;-62
2021/01/12 11:59:35;;;;;;;6.85;0.90;;;;;;;;;;5021639;28;20104;-63
2021/01/12 12:02:01;;;;;;;8.63;0.95;;;;;;;;;;5017889;28;20046;-64
2021/01/12 12:04:28;;;;;;;6.60;1.42;;;;;;;;;;5009310;28;20447;-64
2021/01/12 12:07:02;;;;;;;10.20;1.00;;;;;;;;;;5025116;28;20112;-64
2021/01/12 12:09:28;;;;;;;8.27;1.50;;;;;;;;;;5051648;28;20102;-64
2021/01/12 12:11:54;;;;;;;12.07;1.85;;;;;;;;;;5051740;28;20036;-64
2021/01/12 12:14:20;;;;;;;12.50;1.98;;;;;;;;;;5051730;28;20414;-64
2021/01/12 12:16:47;;;;;;;5.95;1.02;;;;;;;;;;5048424;28;20041;-64
2021/01/12 12:19:17;;;;;;;6.88;0.93;;;;;;;;;;5031709;28;20049;-64
2021/01/12 12:21:45;;;;;;;8.57;2.05;;;;;;;;;;5031491;28;20048;-64
2021/01/12 12:24:11;;;;;;;7.97;1.60;;;;;;;;;;5031810;28;20042;-65
2021/01/12 12:26:38;;;;;;;8.63;1.45;;;;;;;;;;5031465;28;20133;-64
2021/01/12 12:29:04;;;;;;;11.73;1.35;;;;;;;;;;5049948;28;20047;-64
2021/01/12 12:31:30;;;;;;;11.13;2.78;;;;;;;;;;5051297;28;20518;-64
2021/01/12 12:33:56;;;;;;;7.88;1.30;;;;;;;;;;5054600;28;20084;-65
2021/01/12 12:36:22;;;;;;;5.00;0.98;;;;;;;;;;5055029;28;20064;-65
2021/01/12 12:38:48;;;;;;;10.10;1.40;;;;;;;;;;5041321;28;20042;-64
2021/01/12 12:41:15;;;;;;;11.55;1.67;;;;;;;;;;5035333;28;20124;-64
2021/01/12 12:43:41;;;;;;;12.45;1.98;;;;;;;;;;5035011;28;20045;-65
2021/01/12 12:46:08;;;;;;;7.63;1.13;;;;;;;;;;5034498;28;20049;-64
2021/01/12 12:48:34;;;;;;;9.50;2.35;;;;;;;;;;5025995;28;20083;-64
2021/01/12 12:51:00;;;;;;;8.75;1.60;;;;;;;;;;5022666;28;20061;-64
2021/01/12 12:53:29;;;;;;;7.75;1.35;;;;;;;;;;5026765;28;20050;-64
2021/01/12 12:55:55;;;;;;;9.35;1.95;;;;;;;;;;5025755;28;20049;-65
2021/01/12 12:58:21;;;;;;;10.35;1.50;;;;;;;;;;5036871;28;20039;-65
2021/01/12 13:00:48;;;;;;;16.75;1.73;;;;;;;;;;5054689;28;20036;-64
2021/01/12 13:03:14;;;;;;;9.88;1.30;;;;;;;;;;5025747;28;20046;-65
2021/01/12 13:05:43;;;;;;;13.27;3.30;;;;;;;;;;5015249;28;20408;-65
2021/01/12 13:08:10;;;;;;;11.80;1.73;;;;;;;;;;5014986;28;20129;-65
2021/01/12 13:10:36;;;;;;;8.00;1.35;;;;;;;;;;5049398;28;20491;-65
2021/01/12 13:13:02;;;;;;;8.93;1.30;;;;;;;;;;5034553;28;20073;-65
2021/01/12 13:15:28;;;;;;;9.25;1.60;;;;;;;;;;5034670;28;21434;-65
2021/01/12 13:17:56;;;;;;;6.55;1.23;;;;;;;;;;5035529;28;20041;-65
2021/01/12 13:20:22;;;;;;;7.82;1.33;;;;;;;;;;5034322;28;20419;-65
2021/01/12 13:22:48;;;;;;;11.73;2.08;;;;;;;;;;5034542;28;20102;-65
2021/01/12 13:25:15;;;;;;;10.30;1.40;;;;;;;;;;5034332;28;20046;-65
2021/01/12 13:27:41;;;;;;;9.80;1.50;;;;;;;;;;5049233;28;20639;-65
2021/01/12 13:30:09;;;;;;;10.50;1.73;;;;;;;;;;5053958;28;20045;-64
2021/01/12 13:32:45;;;;;;;6.82;1.35;;;;;;;;;;5054034;28;20426;-65
2021/01/12 13:35:11;;;;;;;12.27;1.33;;;;;;;;;;5029909;28;20053;-65
2021/01/12 13:37:37;;;;;;;9.48;1.65;;;;;;;;;;5025629;28;20145;-65
2021/01/12 13:40:04;;;;;;;11.00;1.70;;;;;;;;;;5022979;28;20121;-65
2021/01/12 13:42:30;;;;;;;7.18;1.42;;;;;;;;;;5023257;28;20091;-65
2021/01/12 13:44:57;;;;;;;11.05;1.75;;;;;;;;;;5029854;28;20092;-65
2021/01/12 13:47:24;;;;;;;8.52;1.77;;;;;;;;;;5040419;28;20033;-65
2021/01/12 13:49:52;;;;;;;10.10;1.40;;;;;;;;;;5048936;28;20407;-65
2021/01/12 13:52:19;;;;;;;9.85;1.45;;;;;;;;;;5033596;28;20046;-65
2021/01/12 13:54:45;;;;;;;14.20;2.63;;;;;;;;;;5051245;28;20045;-65
2021/01/12 13:57:13;;;;;;;9.25;1.50;;;;;;;;;;5053660;28;20044;-65
2021/01/12 13:59:40;;;;;;;9.30;1.48;;;;;;;;;;5053810;28;20483;-65
2021/01/12 14:02:07;;;;;;;9.57;1.63;;;;;;;;;;5052419;28;20112;-65
2021/01/12 14:04:33;;;;;;;8.68;1.42;;;;;;;;;;5048886;28;20067;-65
2021/01/12 14:06:59;;;;;;;6.50;0.90;;;;;;;;;;5033452;28;20042;-64
2021/01/12 14:09:25;;;;;;;7.65;1.77;;;;;;;;;;5033666;28;20102;-64
2021/01/12 14:11:51;;;;;;;5.05;0.80;;;;;;;;;;5033429;28;20038;-64
2021/01/12 14:14:17;;;;;;;8.52;1.17;;;;;;;;;;5031366;28;20041;-65
2021/01/12 14:16:44;;;;;;;9.48;1.30;;;;;;;;;;5047268;28;20375;-64
2021/01/12 14:19:12;;;;;;;10.43;2.00;;;;;;;;;;5033233;28;20042;-65
2021/01/12 14:21:38;;;;;;;8.50;1.17;;;;;;;;;;5033008;28;20537;-64
2021/01/12 14:24:04;;;;;;;13.18;2.30;;;;;;;;;;5031769;28;20566;-64
2021/01/12 14:26:30;;;;;;;5.47;1.08;;;;;;;;;;5044300;28;20040;-65
2021/01/12 14:28:56;;;;;;;8.32;0.88;;;;;;;;;;5033088;28;20033;-64
2021/01/12 14:31:22;;;;;;;6.57;1.00;;;;;;;;;;5032824;28;20044;-64
2021/01/12 14:33:49;;;;;;;8.20;2.05;;;;;;;;;;5032804;28;20585;-65
2021/01/12 14:36:19;;;;;;;4.60;1.02;;;;;;;;;;5032406;28;20044;-64